X  Close Metar Aviation Weather Data     KMRH Michael J. Smith Field
Temperature
63°F Temperature
46°F Dewpoint
56% Humidity



Wind
7 MPH
11 KM/H
3 M/S
6 KTS



320°
NW
Current Conditions

Clear Clear
Pressure 1019.62 (hPa) - 30.11 (inHg)
Visibility 9.9 (mile) - 16 (km)
Airport
Airport-code KMRH

Location: Michael J. Smith Field
Distance: 7 (mi)

Metar:
KMRH 190158Z AUTO 32006KT 10SM CLR 17/08 A3011 RMK AO2 SLP196 I1000 T01670078

Time: 18-10-2021 21:58 EDT